Time;durP1;ratioP1;P1;durP2;ratioP2;P2;SDS_P1;SDS_P2;PMS_P1;PMS_P2;Temp;Humidity;BMP_temperature;BMP_pressure;BME280_temperature;BME280_humidity;BME280_pressure;Samples;Min_cycle;Max_cycle;Signal;HPM_P1;HPM_P2
2021/11/29 00:01:33;;;;;;;;;10.25;8.25;;;;;10.38;100.00;100214.00;5059676;28;45485;-78
2021/11/29 00:03:59;;;;;;;;;14.25;9.00;;;;;10.93;100.00;100214.22;5055696;28;45445;-78
2021/11/29 00:06:24;;;;;;;;;6.75;6.50;;;;;11.02;100.00;100214.38;5053097;28;45688;-77
2021/11/29 00:08:49;;;;;;;;;13.00;8.25;;;;;11.10;100.00;100212.00;5058137;28;45401;-78
2021/11/29 00:11:15;;;;;;;;;12.75;9.00;;;;;10.13;100.00;100216.75;5061683;28;45551;-78
2021/11/29 00:13:41;;;;;;;;;9.25;9.25;;;;;10.03;100.00;100216.59;5042005;28;45978;-77
2021/11/29 00:16:08;;;;;;;;;8.50;7.75;;;;;10.07;100.00;100219.88;5053730;28;47261;-78
2021/11/29 00:18:34;;;;;;;;;9.25;8.00;;;;;9.97;100.00;100219.69;5060771;28;45888;-76
2021/11/29 00:21:00;;;;;;;;;17.50;8.50;;;;;10.11;100.00;100219.50;5054403;28;45492;-78
2021/11/29 00:23:26;;;;;;;;;11.50;6.00;;;;;10.44;100.00;100226.75;5061447;28;45473;-78
2021/11/29 00:25:52;;;;;;;;;12.25;11.75;;;;;10.18;100.00;100224.38;5062607;28;48142;-78
2021/11/29 00:28:17;;;;;;;;;16.00;9.00;;;;;10.28;100.00;100230.66;5066434;28;45356;-78
2021/11/29 00:30:44;;;;;;;;;11.25;9.00;;;;;10.27;100.00;100234.25;5052539;28;45535;-78
2021/11/29 00:33:10;;;;;;;;;11.25;8.50;;;;;10.13;100.00;100240.50;5052303;28;45536;-79
2021/11/29 00:35:37;;;;;;;;;11.25;9.00;;;;;10.18;100.00;100227.88;5054652;28;48426;-78
2021/11/29 00:38:04;;;;;;;;;9.75;9.00;;;;;10.21;100.00;100232.06;5041038;28;45616;-78
2021/11/29 00:40:30;;;;;;;;;10.25;8.75;;;;;10.21;100.00;100237.31;5041024;28;45299;-78
2021/11/29 00:42:56;;;;;;;;;12.00;11.25;;;;;10.19;100.00;100228.72;5057404;28;45521;-78
2021/11/29 00:45:21;;;;;;;;;10.50;8.25;;;;;10.07;100.00;100230.41;5055648;28;45350;-78
2021/11/29 00:47:47;;;;;;;;;12.75;9.00;;;;;9.98;100.00;100231.94;5079531;28;45324;-78
2021/11/29 00:50:13;;;;;;;;;8.75;8.75;;;;;9.98;100.00;100242.47;5066699;28;45298;-78
2021/11/29 00:52:40;;;;;;;;;6.50;5.75;;;;;10.14;100.00;100236.91;5054674;28;46551;-77
2021/11/29 00:55:07;;;;;;;;;10.50;10.50;;;;;9.83;100.00;100246.25;5075850;28;48216;-78
2021/11/29 00:57:32;;;;;;;;;9.25;8.75;;;;;9.72;100.00;100251.44;5066191;28;46306;-78
2021/11/29 00:59:57;;;;;;;;;10.25;6.50;;;;;9.93;100.00;100254.31;5055594;28;45416;-78
2021/11/29 01:02:23;;;;;;;;;9.50;9.50;;;;;9.85;100.00;100259.28;5058367;28;46228;-78
2021/11/29 01:04:49;;;;;;;;;11.75;10.50;;;;;9.87;100.00;100267.94;5059877;28;45482;-78
2021/11/29 01:07:15;;;;;;;;;11.25;11.25;;;;;9.88;100.00;100262.56;5058043;28;45435;-78
2021/11/29 01:09:40;;;;;;;;;14.50;11.00;;;;;9.84;100.00;100263.72;5069207;28;45476;-77
2021/11/29 01:12:07;;;;;;;;;10.50;9.00;;;;;9.87;100.00;100274.06;5047767;28;45746;-78
2021/11/29 01:14:32;;;;;;;;;11.50;8.75;;;;;9.83;100.00;100266.50;5056489;28;46798;-78
2021/11/29 01:16:58;;;;;;;;;11.75;8.50;;;;;9.60;100.00;100274.25;5062073;28;45279;-78
2021/11/29 01:19:23;;;;;;;;;12.50;10.50;;;;;9.76;100.00;100279.25;5066677;28;45441;-78
2021/11/29 01:21:49;;;;;;;;;13.75;12.00;;;;;9.60;100.00;100290.06;5068823;28;45154;-78
2021/11/29 01:24:14;;;;;;;;;12.00;8.50;;;;;9.61;100.00;100268.03;5043532;28;47312;-78
2021/11/29 01:26:39;;;;;;;;;11.50;8.00;;;;;9.75;100.00;100277.56;5050461;28;45825;-78
2021/11/29 01:29:06;;;;;;;;;12.25;7.75;;;;;9.71;100.00;100279.59;5040032;28;45427;-78
2021/11/29 01:31:32;;;;;;;;;11.00;8.00;;;;;9.71;100.00;100284.88;5049385;28;45395;-78
2021/11/29 01:33:57;;;;;;;;;12.75;10.25;;;;;9.70;100.00;100283.19;5042708;28;45320;-78
2021/11/29 01:36:22;;;;;;;;;12.25;9.00;;;;;9.76;100.00;100289.81;5057986;28;45401;-78
2021/11/29 01:38:48;;;;;;;;;10.75;8.75;;;;;9.83;100.00;100298.16;5059386;28;45346;-77
2021/11/29 01:41:16;;;;;;;;;13.25;7.00;;;;;9.75;100.00;100294.22;5051801;28;45495;-78
2021/11/29 01:43:42;;;;;;;;;7.75;6.25;;;;;9.73;100.00;100298.78;5053315;28;45546;-77
2021/11/29 01:46:07;;;;;;;;;14.00;8.50;;;;;9.74;100.00;100307.56;5058152;28;45939;-78
2021/11/29 01:48:33;;;;;;;;;10.25;9.50;;;;;9.65;100.00;100305.56;5052956;28;45331;-78
2021/11/29 01:50:59;;;;;;;;;12.00;8.25;;;;;9.68;100.00;100300.91;5054617;28;45459;-77
2021/11/29 01:53:28;;;;;;;;;12.00;10.25;;;;;9.68;100.00;100314.09;5059175;28;45260;-78
2021/11/29 01:55:58;;;;;;;;;13.25;9.00;;;;;9.58;100.00;100314.84;5066882;28;45790;-77
2021/11/29 01:58:24;;;;;;;;;10.75;8.00;;;;;9.59;100.00;100317.38;5060066;28;45215;-78
2021/11/29 02:00:53;;;;;;;;;12.00;9.00;;;;;9.41;100.00;100309.91;5050995;28;45453;-77
2021/11/29 02:03:23;;;;;;;;;12.50;9.00;;;;;9.37;100.00;100318.03;5050625;28;45464;-77
2021/11/29 02:05:48;;;;;;;;;10.00;8.50;;;;;9.36;100.00;100321.63;5058709;28;45748;-77
2021/11/29 02:08:14;;;;;;;;;11.00;8.00;;;;;9.38;100.00;100324.13;5058906;28;45298;-77
2021/11/29 02:10:39;;;;;;;;;15.00;11.00;;;;;9.36;100.00;100313.72;5043715;28;45224;-78
2021/11/29 02:13:04;;;;;;;;;9.00;8.00;;;;;9.44;100.00;100321.09;5060964;28;45742;-77
2021/11/29 02:15:30;;;;;;;;;11.00;9.00;;;;;9.60;100.00;100316.41;5075880;28;45351;-77
2021/11/29 02:17:57;;;;;;;;;9.00;6.00;;;;;9.48;100.00;100319.91;5051008;28;45363;-78
2021/11/29 02:20:23;;;;;;;;;10.75;8.25;;;;;9.47;100.00;100312.94;5081428;28;45330;-78
2021/11/29 02:22:50;;;;;;;;;11.75;9.00;;;;;9.45;100.00;100329.84;5075496;28;45469;-78
2021/11/29 02:25:18;;;;;;;;;9.50;8.50;;;;;9.76;100.00;100330.19;5060806;28;45505;-78
2021/11/29 02:27:46;;;;;;;;;7.50;7.50;;;;;9.82;100.00;100341.28;5061859;28;45353;-78
2021/11/29 02:30:14;;;;;;;;;11.25;8.25;;;;;9.80;100.00;100330.84;5064054;28;45556;-78
2021/11/29 02:32:40;;;;;;;;;13.00;8.75;;;;;9.74;100.00;100329.47;5074664;28;48741;-78
2021/11/29 02:35:06;;;;;;;;;9.50;7.00;;;;;9.57;100.00;100340.34;5070289;28;45343;-78
2021/11/29 02:37:32;;;;;;;;;6.00;6.00;;;;;9.58;100.00;100338.56;5078428;28;45434;-78
2021/11/29 02:39:58;;;;;;;;;8.50;8.25;;;;;9.53;100.00;100346.81;5074717;28;45382;-78
2021/11/29 02:42:23;;;;;;;;;9.00;5.50;;;;;9.49;100.00;100347.94;5082502;28;45782;-78
2021/11/29 02:44:49;;;;;;;;;8.00;5.75;;;;;9.60;100.00;100340.16;5059412;28;46440;-77
2021/11/29 02:47:14;;;;;;;;;9.00;5.50;;;;;9.64;100.00;100346.91;5070687;28;45422;-78
2021/11/29 02:49:40;;;;;;;;;16.25;8.00;;;;;9.69;100.00;100342.13;5080790;28;45395;-78
2021/11/29 02:52:09;;;;;;;;;12.00;7.00;;;;;9.68;100.00;100351.00;5064065;28;47129;-78
2021/11/29 02:54:36;;;;;;;;;12.75;7.00;;;;;9.64;100.00;100349.53;5081079;28;45387;-78
2021/11/29 02:57:09;;;;;;;;;7.25;5.75;;;;;9.65;100.00;100345.91;5060644;28;45400;-78
2021/11/29 02:59:37;;;;;;;;;12.00;6.25;;;;;9.54;100.00;100348.50;5071282;27;46229;-78
2021/11/29 03:02:08;;;;;;;;;8.00;6.25;;;;;9.54;100.00;100353.75;5072490;27;47962;-77
2021/11/29 03:04:34;;;;;;;;;6.25;6.25;;;;;9.48;100.00;100350.69;5089629;27;45334;-77
2021/11/29 03:07:00;;;;;;;;;11.00;6.25;;;;;9.57;100.00;100368.50;5070145;28;45331;-78
2021/11/29 03:09:27;;;;;;;;;5.00;5.00;;;;;9.50;100.00;100365.44;5061539;27;45707;-77
2021/11/29 03:11:53;;;;;;;;;3.25;3.00;;;;;9.67;100.00;100367.75;5079317;28;45821;-78
2021/11/29 03:14:19;;;;;;;;;12.00;5.75;;;;;9.67;100.00;100370.41;5079496;28;45434;-78
2021/11/29 03:16:45;;;;;;;;;10.75;8.25;;;;;9.73;100.00;100375.25;5053910;28;45525;-79
2021/11/29 03:19:11;;;;;;;;;13.00;8.50;;;;;9.73;100.00;100384.97;5059859;28;45376;-79
2021/11/29 03:21:37;;;;;;;;;7.50;6.00;;;;;9.76;100.00;100384.72;5075542;28;47262;-76
2021/11/29 03:24:08;;;;;;;;;11.00;6.50;;;;;9.75;100.00;100380.41;5065103;28;45478;-76
2021/11/29 03:26:34;;;;;;;;;6.25;5.00;;;;;9.57;100.00;100385.16;5043641;28;45401;-79
2021/11/29 03:29:06;;;;;;;;;9.00;5.00;;;;;9.62;100.00;100392.75;5057497;28;45369;-77
2021/11/29 03:31:33;;;;;;;;;7.75;6.00;;;;;9.73;100.00;100398.16;5072019;28;45582;-77
2021/11/29 03:34:01;;;;;;;;;9.00;6.50;;;;;9.79;100.00;100402.13;5067167;28;45154;-77
2021/11/29 03:36:30;;;;;;;;;10.00;5.50;;;;;9.87;100.00;100398.00;5079288;28;45277;-77
2021/11/29 03:38:56;;;;;;;;;8.00;5.25;;;;;9.84;100.00;100405.28;5062385;28;45548;-77
2021/11/29 03:41:23;;;;;;;;;9.50;5.50;;;;;9.87;100.00;100403.28;5063108;27;46986;-76
2021/11/29 03:43:49;;;;;;;;;9.25;8.00;;;;;9.87;100.00;100410.34;5088294;27;45791;-77
2021/11/29 03:46:15;;;;;;;;;6.00;4.00;;;;;9.88;100.00;100415.53;5090427;27;45268;-76
2021/11/29 03:48:40;;;;;;;;;11.00;8.00;;;;;9.91;100.00;100419.75;5081012;28;45563;-77
2021/11/29 03:51:06;;;;;;;;;5.25;4.00;;;;;9.96;100.00;100425.53;5070528;28;45241;-77
2021/11/29 03:53:31;;;;;;;;;11.75;5.00;;;;;9.93;100.00;100431.00;5078197;28;45335;-77
2021/11/29 03:55:57;;;;;;;;;8.75;5.25;;;;;9.94;100.00;100430.91;5067767;28;45348;-77
2021/11/29 03:58:23;;;;;;;;;5.00;5.00;;;;;9.97;100.00;100433.34;5052516;28;45762;-77
2021/11/29 04:00:49;;;;;;;;;6.75;2.50;;;;;10.00;100.00;100435.78;5059448;28;48208;-77
2021/11/29 04:03:14;;;;;;;;;6.00;6.00;;;;;9.99;100.00;100443.78;5088711;28;45004;-78
2021/11/29 04:05:40;;;;;;;;;6.00;4.75;;;;;10.01;100.00;100445.38;5096221;28;44715;-77
2021/11/29 04:08:05;;;;;;;;;4.25;4.25;;;;;9.98;100.00;100445.59;5095940;28;45307;-77
2021/11/29 04:10:31;;;;;;;;;1.25;1.25;;;;;9.92;100.00;100443.38;5083864;28;45310;-76
2021/11/29 04:12:56;;;;;;;;;8.00;5.00;;;;;10.14;100.00;100442.72;5074656;28;45375;-75
2021/11/29 04:15:22;;;;;;;;;7.75;4.75;;;;;9.89;100.00;100445.38;5086334;28;45220;-76
2021/11/29 04:17:47;;;;;;;;;8.00;5.00;;;;;9.86;100.00;100449.06;5081822;28;45383;-78
2021/11/29 04:20:15;;;;;;;;;7.00;4.00;;;;;9.87;100.00;100463.94;5093687;28;45284;-76
2021/11/29 04:22:45;;;;;;;;;3.00;2.00;;;;;9.87;100.00;100455.19;5075938;28;45428;-79
2021/11/29 04:25:13;;;;;;;;;7.25;4.75;;;;;9.95;100.00;100458.13;5094059;28;44792;-78
2021/11/29 04:27:41;;;;;;;;;5.00;3.50;;;;;9.92;100.00;100464.50;5093143;28;45240;-79
2021/11/29 04:30:12;;;;;;;;;8.25;4.75;;;;;9.92;100.00;100466.28;5081379;28;45319;-79
2021/11/29 04:32:38;;;;;;;;;9.00;5.75;;;;;9.87;100.00;100463.09;5074765;28;45707;-79
2021/11/29 04:35:04;;;;;;;;;11.00;5.00;;;;;9.87;100.00;100476.28;5081051;28;45429;-79
2021/11/29 04:37:29;;;;;;;;;5.25;4.00;;;;;9.78;100.00;100472.50;5079528;28;45259;-77
2021/11/29 04:39:55;;;;;;;;;3.50;2.00;;;;;9.73;100.00;100475.47;5067543;28;46175;-77
2021/11/29 04:42:20;;;;;;;;;4.25;4.00;;;;;9.36;100.00;100476.25;5052206;28;45228;-77
2021/11/29 04:44:45;;;;;;;;;5.00;5.00;;;;;9.64;100.00;100473.44;5073719;28;45457;-78
2021/11/29 04:47:11;;;;;;;;;5.75;5.00;;;;;9.66;100.00;100487.34;5078926;28;45629;-77
2021/11/29 04:49:36;;;;;;;;;8.75;5.00;;;;;9.67;100.00;100483.75;5069799;27;47338;-78
2021/11/29 04:52:02;;;;;;;;;4.25;4.00;;;;;9.74;100.00;100492.94;5089981;27;45249;-78
2021/11/29 04:54:28;;;;;;;;;7.50;4.00;;;;;9.72;100.00;100496.66;5080531;28;45165;-77
2021/11/29 04:56:53;;;;;;;;;5.25;4.00;;;;;9.74;100.00;100485.03;5083136;27;45545;-78
2021/11/29 04:59:18;;;;;;;;;4.75;4.50;;;;;9.66;100.00;100492.63;5058308;28;47428;-77
2021/11/29 05:01:44;;;;;;;;;4.50;4.50;;;;;9.75;100.00;100502.53;5068529;28;45462;-78
2021/11/29 05:04:09;;;;;;;;;8.75;3.50;;;;;9.77;100.00;100503.28;5079136;28;45775;-78
2021/11/29 05:06:37;;;;;;;;;9.00;6.25;;;;;9.84;100.00;100508.13;5079615;28;45415;-77
2021/11/29 05:09:05;;;;;;;;;7.75;4.75;;;;;9.91;100.00;100520.81;5059910;28;46464;-78
2021/11/29 05:11:30;;;;;;;;;5.50;2.00;;;;;9.88;100.00;100520.16;5080608;27;45619;-78
2021/11/29 05:13:55;;;;;;;;;7.00;2.00;;;;;9.84;100.00;100522.16;5085181;27;45718;-77
2021/11/29 05:16:21;;;;;;;;;4.75;4.00;;;;;9.72;100.00;100521.22;5071780;28;45493;-77
2021/11/29 05:18:46;;;;;;;;;5.25;4.00;;;;;9.61;100.00;100530.78;5079473;28;45241;-77
2021/11/29 05:21:11;;;;;;;;;5.00;3.00;;;;;9.57;100.00;100538.06;5076978;28;45253;-78
2021/11/29 05:23:37;;;;;;;;;6.25;6.00;;;;;9.93;100.00;100547.06;5067581;28;45529;-77
2021/11/29 05:26:02;;;;;;;;;8.50;4.75;;;;;9.95;100.00;100547.81;5065076;28;45573;-77
2021/11/29 05:28:28;;;;;;;;;9.00;4.75;;;;;9.75;100.00;100552.63;5063236;28;47225;-77
2021/11/29 05:30:53;;;;;;;;;5.00;5.00;;;;;9.94;100.00;100557.53;5053323;28;45691;-77
2021/11/29 05:33:18;;;;;;;;;11.00;4.00;;;;;9.97;100.00;100559.13;5078512;28;45357;-77
2021/11/29 05:35:44;;;;;;;;;4.75;4.75;;;;;9.94;100.00;100560.16;5079928;28;45407;-77
2021/11/29 05:38:09;;;;;;;;;6.25;5.00;;;;;9.74;100.00;100565.94;5080117;28;45383;-77
2021/11/29 05:40:35;;;;;;;;;6.25;5.00;;;;;9.79;100.00;100577.03;5075705;28;45382;-78
2021/11/29 05:43:01;;;;;;;;;7.25;2.50;;;;;9.71;100.00;100577.53;5062534;28;45307;-77
2021/11/29 05:45:26;;;;;;;;;4.00;4.00;;;;;9.91;100.00;100578.84;5065593;28;45372;-77
2021/11/29 05:47:52;;;;;;;;;4.25;4.00;;;;;9.76;100.00;100577.22;5052872;28;47170;-77
2021/11/29 05:50:18;;;;;;;;;5.50;4.25;;;;;9.81;100.00;100590.97;5081159;28;45315;-78
2021/11/29 05:52:45;;;;;;;;;4.00;4.00;;;;;10.00;100.00;100587.94;5062115;28;45352;-78
2021/11/29 05:55:12;;;;;;;;;4.75;2.50;;;;;9.95;100.00;100596.13;5074076;28;45493;-78
2021/11/29 05:57:39;;;;;;;;;4.25;2.00;;;;;10.03;100.00;100591.19;5088856;27;46167;-78
2021/11/29 06:00:06;;;;;;;;;5.00;2.00;;;;;10.06;100.00;100595.41;5083592;27;45755;-78
2021/11/29 06:02:32;;;;;;;;;7.75;4.00;;;;;10.05;100.00;100596.38;5077167;27;45362;-78
2021/11/29 06:04:57;;;;;;;;;9.00;5.00;;;;;10.03;100.00;100604.38;5076207;27;45477;-78
2021/11/29 06:07:23;;;;;;;;;5.75;2.00;;;;;9.83;100.00;100601.41;5093738;27;45906;-78
2021/11/29 06:09:48;;;;;;;;;9.25;6.00;;;;;10.10;100.00;100618.03;5076348;28;45312;-78
2021/11/29 06:12:14;;;;;;;;;5.50;4.00;;;;;10.23;100.00;100610.97;5072735;28;45179;-78
2021/11/29 06:14:39;;;;;;;;;5.00;2.00;;;;;10.26;100.00;100612.56;5066686;27;45470;-78
2021/11/29 06:17:04;;;;;;;;;4.50;3.50;;;;;10.23;100.00;100618.06;5091655;27;45299;-79
2021/11/29 06:19:30;;;;;;;;;4.75;3.50;;;;;10.19;100.00;100622.72;5064916;28;45166;-78
2021/11/29 06:21:55;;;;;;;;;4.25;4.25;;;;;10.26;100.00;100625.78;5073036;28;45582;-78
2021/11/29 06:24:20;;;;;;;;;2.50;2.50;;;;;10.32;100.00;100630.63;5080920;27;45747;-78
2021/11/29 06:26:46;;;;;;;;;4.50;2.50;;;;;10.37;100.00;100641.72;5067219;28;47224;-78
2021/11/29 06:29:11;;;;;;;;;7.50;4.00;;;;;10.40;100.00;100644.13;5058094;28;46050;-78
2021/11/29 06:31:38;;;;;;;;;2.00;2.00;;;;;10.38;100.00;100644.22;5084745;27;46937;-78
2021/11/29 06:34:04;;;;;;;;;7.75;4.00;;;;;10.43;100.00;100654.50;5072404;28;45560;-78
2021/11/29 06:36:30;;;;;;;;;6.25;4.00;;;;;10.37;100.00;100649.66;5079153;28;45331;-78
2021/11/29 06:38:57;;;;;;;;;6.50;4.00;;;;;10.29;100.00;100655.41;5069495;28;45393;-78
2021/11/29 06:41:24;;;;;;;;;5.00;4.00;;;;;10.31;100.00;100677.28;5066393;28;45434;-78
2021/11/29 06:43:50;;;;;;;;;3.00;3.00;;;;;10.44;100.00;100679.94;5079792;28;45579;-78
2021/11/29 06:46:16;;;;;;;;;6.50;6.50;;;;;10.51;100.00;100681.22;5082728;28;45338;-78
2021/11/29 06:48:41;;;;;;;;;5.75;4.00;;;;;10.52;100.00;100674.13;5082770;28;45239;-77
2021/11/29 06:51:07;;;;;;;;;8.00;4.00;;;;;10.53;100.00;100687.25;5084244;28;45345;-78
2021/11/29 06:53:33;;;;;;;;;5.25;2.00;;;;;10.51;100.00;100694.41;5080653;28;45604;-78
2021/11/29 06:56:00;;;;;;;;;4.75;4.75;;;;;10.35;100.00;100691.13;5065850;28;48366;-78
2021/11/29 06:58:26;;;;;;;;;8.25;3.00;;;;;10.37;100.00;100698.00;5078617;27;45637;-78
2021/11/29 07:00:52;;;;;;;;;9.25;5.00;;;;;10.33;100.00;100699.16;5064402;28;45352;-78
2021/11/29 07:03:17;;;;;;;;;4.25;2.50;;;;;10.43;100.00;100710.78;5078397;27;45527;-78
2021/11/29 07:05:43;;;;;;;;;8.50;4.00;;;;;10.27;100.00;100715.41;5077774;28;48485;-78
2021/11/29 07:08:09;;;;;;;;;5.75;4.00;;;;;10.24;100.00;100723.50;5064783;28;45316;-79
2021/11/29 07:10:40;;;;;;;;;6.75;4.25;;;;;10.24;100.00;100723.50;5077868;28;45365;-78
2021/11/29 07:13:07;;;;;;;;;5.50;4.00;;;;;10.35;100.00;100736.84;5085344;27;45373;-78
2021/11/29 07:15:33;;;;;;;;;8.75;4.00;;;;;10.36;100.00;100730.63;5089810;27;45497;-78
2021/11/29 07:17:58;;;;;;;;;6.50;4.00;;;;;10.29;100.00;100739.88;5083149;27;45453;-78
2021/11/29 07:20:24;;;;;;;;;5.00;4.00;;;;;10.11;100.00;100752.47;5071653;27;45489;-79
2021/11/29 07:22:49;;;;;;;;;5.00;3.50;;;;;10.00;100.00;100751.50;5062543;28;45337;-78
2021/11/29 07:25:15;;;;;;;;;6.25;4.75;;;;;9.92;100.00;100759.91;5071873;28;48245;-77
2021/11/29 07:27:40;;;;;;;;;4.75;4.75;;;;;9.89;100.00;100759.25;5066821;28;45399;-77
2021/11/29 07:30:09;;;;;;;;;5.75;4.00;;;;;10.08;100.00;100773.78;5081100;27;45244;-77
2021/11/29 07:32:34;;;;;;;;;10.25;4.50;;;;;10.12;100.00;100777.06;5066128;27;45383;-77
2021/11/29 07:35:00;;;;;;;;;5.75;5.75;;;;;10.17;100.00;100774.97;5065093;28;48389;-77
2021/11/29 07:37:25;;;;;;;;;8.50;6.00;;;;;10.20;100.00;100771.34;5081217;27;45911;-78
2021/11/29 07:39:52;;;;;;;;;8.00;4.00;;;;;10.31;100.00;100774.94;5079075;27;45822;-79
2021/11/29 07:42:18;;;;;;;;;7.00;5.75;;;;;10.35;100.00;100783.50;5058573;28;46661;-77
2021/11/29 07:44:44;;;;;;;;;8.25;5.25;;;;;10.47;100.00;100780.88;5076725;28;45907;-78
2021/11/29 07:47:09;;;;;;;;;6.00;5.75;;;;;10.72;100.00;100787.19;5082522;27;45399;-79
2021/11/29 07:49:35;;;;;;;;;5.25;5.25;;;;;10.05;100.00;100779.25;5061490;28;45632;-79
2021/11/29 07:52:01;;;;;;;;;6.00;5.25;;;;;10.46;100.00;100784.50;5067492;27;45368;-78
2021/11/29 07:54:27;;;;;;;;;8.00;7.00;;;;;10.37;100.00;100786.91;5080559;27;45821;-79
2021/11/29 07:56:52;;;;;;;;;5.00;4.50;;;;;10.35;100.00;100791.44;5080192;27;46098;-79
2021/11/29 07:59:17;;;;;;;;;7.50;5.00;;;;;10.34;100.00;100789.75;5063001;27;45362;-79
2021/11/29 08:01:43;;;;;;;;;8.75;6.00;;;;;10.53;100.00;100786.72;5063556;28;45969;-80
2021/11/29 08:04:08;;;;;;;;;12.50;8.50;;;;;10.40;100.00;100791.97;5078778;28;45446;-80
2021/11/29 08:06:34;;;;;;;;;11.00;5.75;;;;;10.98;100.00;100796.00;5068228;28;45403;-80
2021/11/29 08:08:59;;;;;;;;;8.50;6.00;;;;;10.71;100.00;100796.06;5057235;28;45432;-80
2021/11/29 08:11:25;;;;;;;;;6.75;6.00;;;;;10.85;100.00;100804.72;5060189;27;45477;-81
2021/11/29 08:13:50;;;;;;;;;6.50;6.50;;;;;11.11;100.00;100810.88;5054866;28;46954;-81
2021/11/29 08:16:16;;;;;;;;;9.50;8.00;;;;;10.58;100.00;100817.16;5063953;28;45747;-81
2021/11/29 08:18:42;;;;;;;;;6.00;5.25;;;;;10.77;100.00;100820.25;5078620;28;45505;-81
2021/11/29 08:21:08;;;;;;;;;4.75;4.50;;;;;10.78;100.00;100821.09;5076555;28;45482;-81
2021/11/29 08:23:33;;;;;;;;;8.25;5.75;;;;;10.83;100.00;100832.22;5062192;27;48169;-80
2021/11/29 08:25:59;;;;;;;;;10.00;8.50;;;;;11.12;100.00;100831.06;5086357;27;45260;-80
2021/11/29 08:28:25;;;;;;;;;5.50;5.50;;;;;10.68;100.00;100833.22;5087249;27;45193;-80
2021/11/29 08:30:50;;;;;;;;;5.00;5.00;;;;;10.57;100.00;100838.38;5078573;27;45423;-81
2021/11/29 08:33:16;;;;;;;;;5.75;5.00;;;;;10.59;100.00;100845.25;5081006;27;45389;-80
2021/11/29 08:35:44;;;;;;;;;9.00;6.00;;;;;10.66;100.00;100846.53;5066292;27;45687;-81
2021/11/29 08:38:10;;;;;;;;;7.75;6.75;;;;;11.04;100.00;100846.59;5077862;27;45430;-81
2021/11/29 08:40:36;;;;;;;;;6.50;6.50;;;;;11.04;100.00;100851.06;5057284;28;45802;-78
2021/11/29 08:43:08;;;;;;;;;10.50;7.50;;;;;11.04;100.00;100854.53;5078658;28;45502;-79
2021/11/29 08:45:35;;;;;;;;;11.00;7.50;;;;;11.12;100.00;100862.78;5057693;28;45343;-80
2021/11/29 08:48:04;;;;;;;;;9.75;7.25;;;;;10.88;100.00;100861.81;5086429;27;45508;-79
2021/11/29 08:50:30;;;;;;;;;6.50;6.25;;;;;10.80;100.00;100858.84;5081471;27;45580;-80
2021/11/29 08:52:57;;;;;;;;;8.50;5.00;;;;;10.56;100.00;100857.81;5082046;27;45506;-79
2021/11/29 08:55:22;;;;;;;;;6.25;6.25;;;;;10.56;100.00;100865.75;5084025;27;45619;-79
2021/11/29 08:57:48;;;;;;;;;6.50;4.00;;;;;10.56;100.00;100856.00;5083019;27;45571;-77
2021/11/29 09:00:16;;;;;;;;;8.50;6.50;;;;;10.69;100.00;100861.34;5061587;28;45486;-79
2021/11/29 09:02:43;;;;;;;;;6.25;6.25;;;;;10.65;100.00;100849.31;5080038;28;45472;-78
2021/11/29 09:05:10;;;;;;;;;8.50;6.00;;;;;10.63;100.00;100852.03;5060792;28;45193;-78
2021/11/29 09:07:36;;;;;;;;;7.50;7.50;;;;;10.72;100.00;100867.28;5082573;27;45349;-78
2021/11/29 09:10:04;;;;;;;;;9.00;7.50;;;;;10.71;100.00;100870.00;5059669;28;45312;-78
2021/11/29 09:12:30;;;;;;;;;8.00;8.00;;;;;10.68;100.00;100871.06;5074050;28;45337;-78
2021/11/29 09:14:55;;;;;;;;;13.25;5.75;;;;;11.18;100.00;100875.63;5070304;28;45443;-78
2021/11/29 09:17:21;;;;;;;;;10.00;6.25;;;;;10.88;100.00;100875.03;5073897;27;45798;-78
2021/11/29 09:19:46;;;;;;;;;6.00;6.00;;;;;11.28;100.00;100875.84;5084373;27;45320;-78
2021/11/29 09:22:12;;;;;;;;;10.00;7.25;;;;;11.38;100.00;100883.97;5075071;27;46055;-78
2021/11/29 09:24:37;;;;;;;;;10.25;6.25;;;;;11.40;100.00;100887.34;5076408;28;45369;-78
2021/11/29 09:27:03;;;;;;;;;7.25;6.00;;;;;11.43;100.00;100889.78;5079236;28;45438;-78
2021/11/29 09:29:28;;;;;;;;;13.25;8.50;;;;;11.47;100.00;100894.75;5077228;28;45264;-78
2021/11/29 09:31:55;;;;;;;;;8.50;7.50;;;;;11.39;100.00;100898.88;5070662;28;46569;-78
2021/11/29 09:34:21;;;;;;;;;14.25;10.00;;;;;11.66;100.00;100901.41;5058082;28;46861;-78
2021/11/29 09:36:46;;;;;;;;;12.75;11.50;;;;;11.77;100.00;100905.03;5081767;27;45473;-78
2021/11/29 09:39:12;;;;;;;;;13.50;12.00;;;;;11.78;100.00;100898.78;5079081;28;45354;-79
2021/11/29 09:41:37;;;;;;;;;10.50;8.50;;;;;11.89;100.00;100912.13;5064604;27;47364;-78
2021/11/29 09:44:04;;;;;;;;;7.00;7.00;;;;;12.00;100.00;100914.03;5071744;28;45499;-79
2021/11/29 09:46:30;;;;;;;;;13.50;10.00;;;;;12.09;100.00;100923.97;5070046;28;45853;-79
2021/11/29 09:48:57;;;;;;;;;9.50;7.50;;;;;12.27;100.00;100927.94;5066309;28;46726;-80
2021/11/29 09:51:23;;;;;;;;;11.00;10.25;;;;;12.26;100.00;100928.06;5059807;28;48344;-80
2021/11/29 09:53:49;;;;;;;;;18.75;14.00;;;;;12.35;100.00;100935.34;5077091;27;45806;-79
2021/11/29 09:56:15;;;;;;;;;13.75;10.50;;;;;12.40;100.00;100938.47;5074518;27;45295;-79
2021/11/29 09:58:41;;;;;;;;;15.75;9.75;;;;;12.46;100.00;100935.41;5073972;28;45248;-80
2021/11/29 10:01:08;;;;;;;;;14.00;10.00;;;;;12.56;100.00;100935.59;5055964;27;47401;-80
2021/11/29 10:03:34;;;;;;;;;14.00;11.50;;;;;12.64;100.00;100942.03;5075101;27;45540;-80
2021/11/29 10:05:59;;;;;;;;;15.75;10.75;;;;;12.38;100.00;100942.22;5078775;28;45290;-80
2021/11/29 10:08:38;;;;;;;;;11.75;10.00;;;;;12.65;100.00;100945.53;5080119;27;45764;-80
2021/11/29 10:11:11;;;;;;;;;14.50;11.00;;;;;12.82;100.00;100936.34;5067615;28;45533;-79
2021/11/29 10:13:45;;;;;;;;;13.50;11.50;;;;;13.55;100.00;100942.28;5057922;28;45841;-80
2021/11/29 10:16:11;;;;;;;;;11.75;9.00;;;;;13.86;100.00;100935.44;5068048;28;45481;-80
2021/11/29 10:18:37;;;;;;;;;12.00;8.00;;;;;14.17;100.00;100945.34;5076101;28;45431;-80
2021/11/29 10:21:09;;;;;;;;;15.75;11.75;;;;;14.51;98.53;100940.84;5055143;28;47037;-80
2021/11/29 10:24:02;;;;;;;;;16.00;13.00;;;;;14.73;95.83;100937.31;5066274;28;45389;-80
2021/11/29 10:26:31;;;;;;;;;19.00;13.00;;;;;14.94;89.39;100935.53;5075750;27;45435;-80
2021/11/29 10:28:59;;;;;;;;;14.50;11.75;;;;;15.15;91.82;100932.91;5077758;28;45656;-80
2021/11/29 10:31:31;;;;;;;;;14.50;11.00;;;;;15.39;87.85;100943.28;5078342;28;46422;-80
2021/11/29 10:34:04;;;;;;;;;9.00;9.00;;;;;15.46;85.05;100938.31;5055705;28;45778;-80
2021/11/29 10:36:34;;;;;;;;;14.00;10.75;;;;;15.56;86.82;100932.13;5084767;27;45574;-80
2021/11/29 10:39:14;;;;;;;;;15.75;12.00;;;;;15.63;87.47;100930.63;5080439;27;45448;-80
2021/11/29 10:41:45;;;;;;;;;14.00;11.75;;;;;15.68;80.46;100930.19;5058412;28;46266;-80
2021/11/29 10:44:17;;;;;;;;;18.25;14.25;;;;;15.72;85.18;100936.97;5089122;27;45221;-80
2021/11/29 10:46:45;;;;;;;;;18.25;15.00;;;;;15.81;85.43;100944.16;5087366;27;45429;-80
2021/11/29 10:49:13;;;;;;;;;19.75;12.50;;;;;15.92;83.42;100937.91;5087320;27;45585;-80
2021/11/29 10:51:43;;;;;;;;;15.00;13.50;;;;;16.11;81.21;100948.66;5062776;28;46474;-81
2021/11/29 10:54:15;;;;;;;;;19.75;14.00;;;;;15.70;80.59;100944.22;5062982;28;46084;-81
2021/11/29 10:56:42;;;;;;;;;13.50;12.00;;;;;15.23;79.91;100942.91;5062398;28;45441;-81
2021/11/29 10:59:11;;;;;;;;;15.75;11.75;;;;;15.21;80.41;100950.16;5078037;27;45429;-82
2021/11/29 11:01:39;;;;;;;;;17.75;12.50;;;;;15.44;81.63;100949.09;5085702;27;46310;-81
2021/11/29 11:04:08;;;;;;;;;13.50;12.00;;;;;15.37;79.98;100949.75;5079990;27;45564;-81
2021/11/29 11:06:47;;;;;;;;;16.00;13.00;;;;;15.90;79.57;100950.50;5087556;27;45333;-82
2021/11/29 11:09:18;;;;;;;;;20.75;12.00;;;;;16.03;78.27;100953.78;5081382;28;45429;-81
2021/11/29 11:11:49;;;;;;;;;16.00;13.00;;;;;15.51;79.02;100955.56;5060421;28;47457;-83
2021/11/29 11:14:25;;;;;;;;;13.25;10.50;;;;;15.46;80.12;100960.44;5058144;28;45423;-82